createdAt,value
2023-03-21T00:01:36.981Z,9.7
2023-03-21T00:05:43.339Z,9.6
2023-03-21T00:07:46.401Z,9.8
2023-03-21T00:09:55.181Z,9.6
2023-03-21T00:11:55.854Z,9.6
2023-03-21T00:13:58.962Z,9.6
2023-03-21T00:16:06.727Z,9.7
2023-03-21T00:18:05.238Z,9.8
2023-03-21T00:20:08.332Z,9.7
2023-03-21T00:22:11.494Z,9.7
2023-03-21T00:24:17.828Z,9.7
2023-03-21T00:26:20.946Z,9.6
2023-03-21T00:28:24.079Z,9.7
2023-03-21T00:29:27.280Z,9.6
2023-03-21T00:36:06.501Z,9.7
2023-03-21T00:37:42.999Z,9.7
2023-03-21T00:47:58.775Z,9.5
2023-03-21T00:50:01.806Z,9.6
2023-03-21T00:52:17.151Z,9.6
2023-03-21T00:54:11.263Z,9.6
2023-03-21T00:58:17.548Z,9.6
2023-03-21T01:00:20.666Z,9.6
2023-03-21T01:02:23.884Z,9.5
2023-03-21T01:04:26.944Z,9.5
2023-03-21T01:08:50.652Z,9.6
2023-03-21T01:10:39.541Z,9.5
2023-03-21T01:12:42.686Z,9.5
2023-03-21T01:14:45.805Z,9.5
2023-03-21T01:16:48.956Z,9.4
2023-03-21T01:18:52.086Z,9.4
2023-03-21T01:20:58.410Z,9.4
2023-03-21T01:23:01.522Z,9.5
2023-03-21T01:26:07.831Z,9.5
2023-03-21T01:32:17.214Z,9.5
2023-03-21T01:36:26.789Z,9.5
2023-03-21T01:38:29.807Z,9.5
2023-03-21T01:40:32.939Z,9.4
2023-03-21T01:42:36.057Z,9.4
2023-03-21T01:44:39.175Z,9.4
2023-03-21T01:47:00.437Z,9.4
2023-03-21T01:48:48.664Z,9.5
2023-03-21T01:50:51.812Z,9.4
2023-03-21T01:52:54.942Z,9.4
2023-03-21T01:54:58.084Z,9.5
2023-03-21T01:57:01.182Z,9.4
2023-03-21T01:59:04.318Z,9.4
2023-03-21T02:01:07.491Z,9.3
2023-03-21T02:03:21.029Z,9.5
2023-03-21T02:05:16.918Z,9.4
2023-03-21T02:07:20.029Z,9.4
2023-03-21T02:09:23.178Z,9.4
2023-03-21T02:11:26.307Z,9.4
2023-03-21T02:15:34.326Z,9.4
2023-03-21T02:17:40.424Z,9.4
2023-03-21T02:19:52.678Z,9.4
2023-03-21T02:21:46.659Z,9.5
2023-03-21T02:24:10.355Z,9.4
2023-03-21T02:26:13.513Z,9.5
2023-03-21T02:28:16.630Z,9.5
2023-03-21T02:30:29.421Z,9.5
2023-03-21T02:32:37.019Z,9.5
2023-03-21T02:34:29.203Z,9.5
2023-03-21T02:36:32.345Z,9.4
2023-03-21T02:38:35.446Z,9.4
2023-03-21T02:40:38.850Z,9.5
2023-03-21T02:42:43.322Z,9.4
2023-03-21T02:44:48.034Z,9.4
2023-03-21T02:46:59.469Z,9.5
2023-03-21T02:48:54.349Z,9.4
2023-03-21T02:50:57.446Z,9.5
2023-03-21T02:53:00.554Z,9.5
2023-03-21T02:55:03.708Z,9.5
2023-03-21T02:57:06.974Z,9.4
2023-03-21T02:59:13.182Z,9.4
2023-03-21T03:03:33.010Z,9.5
2023-03-21T03:05:22.519Z,9.5
2023-03-21T03:07:25.658Z,9.6
2023-03-21T03:09:28.804Z,9.5
2023-03-21T03:11:31.935Z,9.6
2023-03-21T03:13:38.572Z,9.4
2023-03-21T03:15:41.826Z,9.5
2023-03-21T03:17:44.818Z,9.5
2023-03-21T03:20:51.153Z,9.6
2023-03-21T03:22:54.254Z,9.5
2023-03-21T03:24:58.568Z,9.5
2023-03-21T03:27:04.170Z,9.4
2023-03-21T03:29:06.929Z,9.4
2023-03-21T03:31:10.620Z,9.4
2023-03-21T03:33:13.139Z,9.4
2023-03-21T03:35:16.267Z,9.5
2023-03-21T03:37:19.409Z,9.4
2023-03-21T03:39:22.528Z,9.5
2023-03-21T03:43:32.037Z,9.4
2023-03-21T03:47:44.700Z,9.5
2023-03-21T03:53:47.663Z,9.5
2023-03-21T03:57:57.034Z,9.5
2023-03-21T04:04:13.038Z,9.5
2023-03-21T04:08:12.691Z,9.5
2023-03-21T04:12:22.152Z,9.4
2023-03-21T04:15:28.442Z,9.4
2023-03-21T04:17:31.559Z,9.5
2023-03-21T04:19:34.722Z,9.4
2023-03-21T04:21:37.834Z,9.5
2023-03-21T04:23:44.123Z,9.5
2023-03-21T04:25:55.942Z,9.5
2023-03-21T04:27:50.413Z,9.5
2023-03-21T04:29:53.537Z,9.5
2023-03-21T04:31:56.807Z,9.4
2023-03-21T04:36:03.004Z,9.4
2023-03-21T04:38:09.256Z,9.4
2023-03-21T04:40:12.386Z,9.5
2023-03-21T04:42:15.533Z,9.4
2023-03-21T04:44:18.678Z,9.4
2023-03-21T04:46:21.788Z,9.6
2023-03-21T04:48:24.933Z,9.4
2023-03-21T04:52:34.361Z,9.3
2023-03-21T04:54:37.522Z,9.3
2023-03-21T04:56:40.626Z,9.4
2023-03-21T04:58:43.777Z,9.4
2023-03-21T05:00:46.944Z,9.3
2023-03-21T05:02:49.997Z,9.4
2023-03-21T05:04:53.142Z,9.4
2023-03-21T05:06:59.511Z,9.4
2023-03-21T05:09:02.613Z,9.3
2023-03-21T05:12:08.925Z,9.3
2023-03-21T05:14:12.065Z,9.4
2023-03-21T05:16:15.217Z,9.3
2023-03-21T05:20:24.662Z,9.4
2023-03-21T05:28:37.216Z,9.3
2023-03-21T05:30:40.385Z,9.3
2023-03-21T05:32:43.473Z,9.3
2023-03-21T05:34:49.817Z,9.2
2023-03-21T05:38:56.063Z,9.3
2023-03-21T05:45:05.472Z,9.2
2023-03-21T05:49:14.906Z,9.2
2023-03-21T05:51:18.032Z,9.2
2023-03-21T05:53:23.178Z,9.2
2023-03-21T05:55:24.343Z,9.3
2023-03-21T05:57:27.453Z,9.2
2023-03-21T05:59:30.573Z,9.2
2023-03-21T06:01:33.682Z,9.2
2023-03-21T06:03:40.065Z,9.2
2023-03-21T06:05:43.144Z,9.2
2023-03-21T06:07:46.296Z,9.2
2023-03-21T06:10:10.213Z,9.2
2023-03-21T06:12:13.314Z,9.2
2023-03-21T06:14:16.456Z,9.2
2023-03-21T06:18:26.002Z,9.4
2023-03-21T06:20:29.075Z,9.2
2023-03-21T06:24:35.324Z,9.2
2023-03-21T06:30:47.918Z,9.4
2023-03-21T06:34:54.245Z,9.4
2023-03-21T06:41:03.596Z,9.5
2023-03-21T06:43:06.729Z,9.4
2023-03-21T06:45:13.035Z,9.4
2023-03-21T06:47:16.151Z,9.4
2023-03-21T06:49:19.295Z,9.4
2023-03-21T06:53:25.533Z,9.5
2023-03-21T06:55:28.672Z,9.5
2023-03-21T06:59:38.141Z,9.6
2023-03-21T07:01:41.273Z,9.6
2023-03-21T07:03:44.374Z,9.7
2023-03-21T07:04:47.554Z,9.6
2023-03-21T07:06:50.724Z,9.6
2023-03-21T07:08:53.806Z,9.6
2023-03-21T07:10:56.946Z,9.7
2023-03-21T07:13:03.280Z,9.5
2023-03-21T07:15:06.393Z,9.6
2023-03-21T07:21:15.787Z,9.5
2023-03-21T07:23:18.902Z,9.7
2023-03-21T07:25:22.057Z,9.7
2023-03-21T07:27:28.378Z,9.7
2023-03-21T07:29:31.487Z,9.7
2023-03-21T07:31:34.676Z,9.7
2023-03-21T07:33:37.762Z,9.9
2023-03-21T07:35:41.699Z,9.9
2023-03-21T07:37:44.035Z,10
2023-03-21T07:41:53.459Z,10.1
2023-03-21T07:43:56.568Z,10.1
2023-03-21T07:45:59.784Z,10.2
2023-03-21T07:50:05.992Z,10.2
2023-03-21T07:52:09.220Z,10.2
2023-03-21T07:54:12.222Z,10.2
2023-03-21T08:00:24.884Z,10.4
2023-03-21T08:01:28.019Z,10.4
2023-03-21T08:03:31.217Z,10.4
2023-03-21T08:05:34.333Z,10.3
2023-03-21T08:07:37.440Z,10.3
2023-03-21T08:09:45.350Z,10.4
2023-03-21T08:15:54.761Z,10.2
2023-03-21T08:22:04.304Z,10.1
2023-03-21T08:24:10.474Z,10.1
2023-03-21T08:26:13.595Z,10.2
2023-03-21T08:28:16.738Z,10.1
2023-03-21T08:30:19.876Z,10.1
2023-03-21T08:32:22.983Z,10.2
2023-03-21T08:34:26.157Z,10.2
2023-03-21T08:36:29.263Z,10.3
2023-03-21T08:38:35.601Z,10.3
2023-03-21T08:40:38.752Z,10.3
2023-03-21T08:42:41.897Z,10.3
2023-03-21T08:44:45.045Z,10.4
2023-03-21T08:46:48.192Z,10.4
2023-03-21T08:48:51.275Z,10.6
2023-03-21T08:50:54.408Z,10.6
2023-03-21T08:53:00.779Z,10.7
2023-03-21T08:55:03.933Z,10.7
2023-03-21T08:57:07.229Z,10.6
2023-03-21T09:00:13.382Z,10.9
2023-03-21T09:02:16.542Z,10.8
2023-03-21T09:08:29.179Z,10.8
2023-03-21T09:10:32.342Z,10.9
2023-03-21T09:12:35.471Z,11
2023-03-21T09:14:38.619Z,10.9
2023-03-21T09:18:44.905Z,10.9
2023-03-21T09:20:51.269Z,10.8
2023-03-21T09:22:54.425Z,10.9
2023-03-21T09:24:57.568Z,10.9
2023-03-21T09:29:03.875Z,11
2023-03-21T09:31:07.122Z,11.1
2023-03-21T09:33:10.143Z,11.2
2023-03-21T09:37:19.660Z,11.4
2023-03-21T09:39:22.817Z,11.3
2023-03-21T09:41:25.949Z,11.3
2023-03-21T09:45:32.242Z,11.2
2023-03-21T09:47:35.387Z,11.3
2023-03-21T09:49:41.709Z,11.1
2023-03-21T09:51:44.869Z,11.1
2023-03-21T09:53:48.009Z,11.2
2023-03-21T09:56:15.709Z,11.1
2023-03-21T09:58:18.754Z,11.2
2023-03-21T10:00:21.803Z,11.3
2023-03-21T10:02:27.951Z,11.3
2023-03-21T10:04:31.119Z,11.3
2023-03-21T10:06:34.269Z,11.2
2023-03-21T10:08:37.416Z,11.3
2023-03-21T10:12:43.730Z,11.2
2023-03-21T10:16:53.353Z,11.2
2023-03-21T10:23:02.447Z,11.3
2023-03-21T10:25:05.613Z,11.4
2023-03-21T10:27:09.462Z,11.4
2023-03-21T10:29:12.772Z,11.5
2023-03-21T10:39:31.244Z,11.7
2023-03-21T10:41:34.291Z,11.8
2023-03-21T10:47:46.790Z,12
2023-03-21T10:50:52.791Z,12.2
2023-03-21T10:52:55.730Z,12.2
2023-03-21T10:54:58.792Z,12.1
2023-03-21T10:57:01.828Z,12.1
2023-03-21T11:13:32.417Z,12.6
2023-03-21T11:15:35.481Z,12.7
2023-03-21T11:21:44.633Z,13.2
2023-03-21T11:27:56.899Z,13.5
2023-03-21T11:32:02.966Z,13.7
2023-03-21T11:34:06.014Z,13.8
2023-03-21T11:36:09.172Z,13.6
2023-03-21T11:38:12.120Z,13.5
2023-03-21T11:40:15.153Z,13.5
2023-03-21T11:49:33.506Z,13.1
2023-03-21T11:51:36.549Z,13.3
2023-03-21T11:53:39.633Z,13.3
2023-03-21T11:55:45.751Z,13.3
2023-03-21T11:57:48.788Z,13.3
2023-03-21T11:59:51.843Z,13.4
2023-03-21T12:01:54.869Z,13.4
2023-03-21T12:03:57.991Z,13.5
2023-03-21T12:06:01.007Z,13.9
2023-03-21T12:08:04.026Z,14.2
2023-03-21T12:10:10.161Z,14.4
2023-03-21T12:12:13.200Z,14.5
2023-03-21T12:14:16.275Z,14.1
2023-03-21T12:18:22.326Z,13.8
2023-03-21T12:20:25.335Z,13.7
2023-03-21T12:22:28.404Z,13.7
2023-03-21T12:24:34.566Z,13.6
2023-03-21T12:26:37.586Z,13.6
2023-03-21T12:28:40.649Z,13.5
2023-03-21T12:30:43.669Z,13.5
2023-03-21T12:32:46.713Z,13.4
2023-03-21T12:36:52.927Z,13.4
2023-03-21T12:41:01.971Z,13.3
2023-03-21T12:43:05.040Z,13.4
2023-03-21T12:46:11.167Z,13.3
2023-03-21T12:52:23.413Z,13.7
2023-03-21T12:54:26.481Z,13.9
2023-03-21T12:56:29.560Z,13.9
2023-03-21T12:58:32.586Z,14
2023-03-21T13:00:35.718Z,14.1
2023-03-21T13:02:38.670Z,13.9
2023-03-21T13:04:41.717Z,14
2023-03-21T13:06:47.884Z,13.7
2023-03-21T13:10:53.971Z,13.9
2023-03-21T13:17:03.110Z,14
2023-03-21T13:19:06.171Z,14.1
2023-03-21T13:21:12.301Z,13.9
2023-03-21T13:23:15.337Z,13.7
2023-03-21T13:27:21.448Z,13.7
2023-03-21T13:35:37.169Z,14.1
2023-03-21T13:39:42.782Z,14.1
2023-03-21T13:42:12.207Z,14.3
2023-03-21T13:44:15.216Z,14.3
2023-03-21T13:54:33.536Z,18.9
2023-03-21T13:56:36.583Z,18.5
2023-03-21T13:58:39.597Z,16.6
2023-03-21T14:00:42.625Z,17.5
2023-03-21T14:02:50.347Z,17.1
2023-03-21T14:05:04.992Z,16.4
2023-03-21T14:06:56.389Z,15.8
2023-03-21T14:08:59.337Z,15.5
2023-03-21T14:11:02.387Z,14.9
2023-03-21T14:13:05.400Z,14.9
2023-03-21T14:15:16.337Z,15
2023-03-21T14:17:14.836Z,15.4
2023-03-21T14:19:17.522Z,16.2
2023-03-21T14:21:23.763Z,17.3
2023-03-21T14:23:23.567Z,18.8
2023-03-21T14:25:31.232Z,19.3
2023-03-21T14:27:29.592Z,18.5
2023-03-21T14:29:32.625Z,19.8
2023-03-21T14:33:41.732Z,17.9
2023-03-21T14:35:44.779Z,16
2023-03-21T14:36:55.435Z,16
2023-03-21T14:40:53.830Z,15.6
2023-03-21T14:42:56.794Z,15.1
2023-03-21T14:45:02.910Z,15.5
2023-03-21T14:51:11.948Z,16.8
2023-03-21T15:03:33.050Z,17.2
2023-03-21T15:05:36.099Z,15.7
2023-03-21T15:09:42.072Z,15.4
2023-03-21T15:11:45.072Z,15.1
2023-03-21T15:13:51.185Z,15
2023-03-21T15:15:54.211Z,14.8
2023-03-21T15:17:57.216Z,14.5
2023-03-21T15:22:05.928Z,14.5
2023-03-21T15:32:21.464Z,14.3
2023-03-21T15:33:24.556Z,14.1
2023-03-21T15:35:27.609Z,14.1
2023-03-21T15:37:30.616Z,14
2023-03-21T15:39:33.672Z,14
2023-03-21T15:41:39.807Z,14
2023-03-21T15:43:42.862Z,14
2023-03-21T15:45:45.881Z,13.9
2023-03-21T15:47:48.953Z,13.4
2023-03-21T15:49:51.980Z,13.6
2023-03-21T15:51:55.040Z,13.9
2023-03-21T15:53:58.073Z,13.9
2023-03-21T15:56:04.234Z,13.8
2023-03-21T15:58:07.274Z,13.8
2023-03-21T16:00:10.413Z,13.9
2023-03-21T16:02:13.411Z,13.8
2023-03-21T16:04:16.392Z,13.8
2023-03-21T16:06:19.423Z,13.8
2023-03-21T16:08:22.462Z,13.7
2023-03-21T16:10:28.626Z,13.7
2023-03-21T16:12:31.683Z,13.7
2023-03-21T16:18:40.802Z,13.9
2023-03-21T16:20:43.858Z,14
2023-03-21T16:24:53.081Z,13.9
2023-03-21T16:26:56.127Z,13.9
2023-03-21T16:28:59.180Z,13.7
2023-03-21T16:30:02.283Z,13.8
2023-03-21T16:32:05.387Z,13.7
2023-03-21T16:36:11.379Z,13.7
2023-03-21T16:38:17.544Z,13.7
2023-03-21T16:42:23.639Z,13.6
2023-03-21T16:44:26.700Z,13.6
2023-03-21T16:48:32.768Z,13.4
2023-03-21T16:50:36.013Z,13.4
2023-03-21T16:52:41.973Z,13.4
2023-03-21T16:54:45.019Z,13.4
2023-03-21T17:00:54.188Z,13.3
2023-03-21T17:11:12.537Z,13
2023-03-21T17:15:18.648Z,12.9
2023-03-21T17:17:21.691Z,12.8
2023-03-21T17:19:25.206Z,12.9
2023-03-21T17:21:30.912Z,12.7
2023-03-21T17:23:33.965Z,12.6
2023-03-21T17:25:37.022Z,12.5
2023-03-21T17:28:01.075Z,12.5
2023-03-21T17:30:04.134Z,12.5
2023-03-21T17:32:07.171Z,12.3
2023-03-21T17:36:16.392Z,12.2
2023-03-21T17:38:19.450Z,12.1
2023-03-21T17:40:22.496Z,12
2023-03-21T17:42:25.565Z,12.1
2023-03-21T17:46:31.694Z,12
2023-03-21T17:48:37.840Z,11.9
2023-03-21T17:50:41.255Z,11.9
2023-03-21T17:52:43.930Z,11.9
2023-03-21T17:58:53.089Z,11.8
2023-03-21T18:03:02.297Z,11.8
2023-03-21T18:05:05.357Z,11.7
2023-03-21T18:07:12.004Z,11.6
2023-03-21T18:09:12.145Z,11.6
2023-03-21T18:11:14.522Z,11.4
2023-03-21T18:21:33.142Z,11.3
2023-03-21T18:22:36.155Z,11.5
2023-03-21T18:24:39.203Z,11.3
2023-03-21T18:26:42.239Z,11.3
2023-03-21T18:28:45.449Z,11.3
2023-03-21T18:31:09.681Z,11.3
2023-03-21T18:32:54.495Z,11.3
2023-03-21T18:34:57.648Z,11.3
2023-03-21T18:37:03.698Z,11.3
2023-03-21T18:39:03.855Z,11.2
2023-03-21T18:41:06.896Z,11.2
2023-03-21T18:43:56.072Z,11.2
2023-03-21T18:45:16.121Z,11.1
2023-03-21T18:47:19.170Z,11.2
2023-03-21T18:51:25.514Z,11.1
2023-03-21T18:53:28.536Z,11.1
2023-03-21T18:55:45.510Z,11.1
2023-03-21T18:57:37.331Z,11
2023-03-21T18:59:41.193Z,11
2023-03-21T19:01:44.349Z,10.9
2023-03-21T19:04:14.543Z,11
2023-03-21T19:05:50.446Z,10.9
2023-03-21T19:07:53.586Z,10.9
2023-03-21T19:10:16.016Z,11
2023-03-21T19:16:11.237Z,10.8
2023-03-21T19:18:52.128Z,10.9
2023-03-21T19:19:15.795Z,11
2023-03-21T19:21:18.876Z,10.9
2023-03-21T19:23:22.001Z,10.8
2023-03-21T19:25:25.143Z,10.9
2023-03-21T19:27:31.513Z,10.8
2023-03-21T19:29:34.661Z,10.9
2023-03-21T19:31:37.857Z,10.9
2023-03-21T19:33:40.938Z,10.9
2023-03-21T19:35:44.413Z,10.9
2023-03-21T19:37:47.262Z,10.9
2023-03-21T19:39:50.379Z,10.9
2023-03-21T19:46:03.156Z,10.9
2023-03-21T19:48:06.525Z,10.8
2023-03-21T19:52:12.497Z,10.8
2023-03-21T19:54:15.631Z,10.8
2023-03-21T19:56:26.265Z,10.7
2023-03-21T19:58:26.732Z,10.9
2023-03-21T20:00:29.841Z,10.9
2023-03-21T20:02:36.375Z,10.7
2023-03-21T20:09:17.201Z,10.8
2023-03-21T20:15:07.023Z,10.7
2023-03-21T20:16:03.669Z,10.8
2023-03-21T20:18:01.409Z,10.8
2023-03-21T20:20:04.564Z,10.8
2023-03-21T20:22:07.992Z,10.8
2023-03-21T20:24:14.077Z,10.9
2023-03-21T20:30:23.486Z,10.9
2023-03-21T20:32:26.655Z,11
2023-03-21T20:34:30.600Z,11
2023-03-21T20:36:39.957Z,11
2023-03-21T20:38:39.352Z,10.9
2023-03-21T20:40:42.445Z,10.9
2023-03-21T20:42:48.443Z,11
2023-03-21T20:44:58.205Z,11
2023-03-21T20:46:51.934Z,10.9
2023-03-21T20:48:55.053Z,10.9
2023-03-21T20:51:01.273Z,10.9
2023-03-21T20:53:06.808Z,10.9
2023-03-21T20:59:24.475Z,10.9
2023-03-21T21:01:17.273Z,11
2023-03-21T21:03:20.253Z,11.1
2023-03-21T21:05:28.717Z,11.2
2023-03-21T21:07:29.759Z,10.9
2023-03-21T21:09:32.886Z,10.9
2023-03-21T21:12:06.464Z,11
2023-03-21T21:14:05.765Z,11.1
2023-03-21T21:16:08.855Z,11.2
2023-03-21T21:18:11.933Z,11.1
2023-03-21T21:20:18.301Z,11.1
2023-03-21T21:22:21.431Z,11
2023-03-21T21:26:27.747Z,11
2023-03-21T21:28:30.878Z,11.1
2023-03-21T21:30:34.041Z,11.1
2023-03-21T21:34:43.517Z,10.9
2023-03-21T21:36:46.672Z,10.8
2023-03-21T21:40:52.965Z,10.7
2023-03-21T21:42:56.100Z,10.8
2023-03-21T21:47:02.401Z,10.5
2023-03-21T21:51:11.878Z,10.6
2023-03-21T21:53:15.025Z,10.6
2023-03-21T22:03:33.929Z,10.3
2023-03-21T22:08:43.377Z,10.4
2023-03-21T22:10:46.513Z,10.3
2023-03-21T22:12:49.673Z,10.4
2023-03-21T22:14:52.783Z,10.5
2023-03-21T22:16:59.102Z,10.4
2023-03-21T22:21:05.372Z,10.4
2023-03-21T22:23:08.552Z,10.4
2023-03-21T22:27:14.791Z,10.4
2023-03-21T22:31:24.342Z,10.5
2023-03-21T22:33:27.405Z,10.4
2023-03-21T22:35:30.581Z,10.6
2023-03-21T22:37:33.664Z,10.4
2023-03-21T22:39:36.814Z,10.6
2023-03-21T22:43:43.098Z,10.5
2023-03-21T22:45:49.512Z,10.5
2023-03-21T22:47:52.702Z,10.6
2023-03-21T22:49:55.719Z,10.4
2023-03-21T22:56:05.157Z,10.5
2023-03-21T22:58:08.261Z,10.4
2023-03-21T23:00:14.624Z,10.3
2023-03-21T23:02:17.754Z,10.4
2023-03-21T23:04:20.949Z,10.4
2023-03-21T23:05:24.042Z,10.4
2023-03-21T23:07:27.244Z,10.3
2023-03-21T23:09:30.326Z,10.3
2023-03-21T23:11:33.471Z,10.3
2023-03-21T23:13:39.808Z,10.3
2023-03-21T23:15:42.971Z,10.4
2023-03-21T23:17:47.414Z,10.3
2023-03-21T23:19:49.220Z,10.3
2023-03-21T23:21:52.365Z,10.3
2023-03-21T23:25:58.620Z,10.2
2023-03-21T23:28:04.963Z,10.2
2023-03-21T23:30:08.080Z,10.1
2023-03-21T23:32:11.204Z,10.1
2023-03-21T23:34:14.364Z,10.1
2023-03-21T23:36:17.490Z,10.2
2023-03-21T23:38:20.608Z,10.4
2023-03-21T23:40:23.767Z,10.4
2023-03-21T23:42:30.118Z,10.3
2023-03-21T23:44:33.252Z,10.2
2023-03-21T23:46:36.414Z,10.1
2023-03-21T23:48:39.512Z,10.1
2023-03-21T23:50:42.656Z,10.1
2023-03-21T23:52:45.783Z,10.1
2023-03-21T23:54:48.909Z,10.1
2023-03-21T23:56:55.257Z,10.2
2023-03-21T23:58:58.379Z,10.3
